sensor_id;sensor_type;location;lat;lon;timestamp;P1;durP1;ratioP1;P2;durP2;ratioP2
67757;SDS011;54562;47.620;18.786;2022-11-03T00:02:20;23.80;;;14.40;;
67757;SDS011;54562;47.620;18.786;2022-11-03T00:05:28;22.10;;;13.80;;
67757;SDS011;54562;47.620;18.786;2022-11-03T00:08:58;20.60;;;12.90;;
67757;SDS011;54562;47.620;18.786;2022-11-03T00:12:07;21.50;;;12.60;;
67757;SDS011;54562;47.620;18.786;2022-11-03T00:15:16;24.40;;;14.10;;
67757;SDS011;54562;47.620;18.786;2022-11-03T00:18:23;23.40;;;14.50;;
67757;SDS011;54562;47.620;18.786;2022-11-03T00:21:32;22.30;;;13.20;;
67757;SDS011;54562;47.620;18.786;2022-11-03T00:24:40;21.90;;;13.20;;
67757;SDS011;54562;47.620;18.786;2022-11-03T00:27:54;23.50;;;14.10;;
67757;SDS011;54562;47.620;18.786;2022-11-03T00:31:07;23.70;;;14.60;;
67757;SDS011;54562;47.620;18.786;2022-11-03T00:34:17;21.20;;;12.90;;
67757;SDS011;54562;47.620;18.786;2022-11-03T00:37:24;21.50;;;13.50;;
67757;SDS011;54562;47.620;18.786;2022-11-03T00:40:32;24.50;;;13.90;;
67757;SDS011;54562;47.620;18.786;2022-11-03T00:43:40;24.40;;;13.40;;
67757;SDS011;54562;47.620;18.786;2022-11-03T00:46:49;22.40;;;13.50;;
67757;SDS011;54562;47.620;18.786;2022-11-03T00:49:56;22.30;;;12.60;;
67757;SDS011;54562;47.620;18.786;2022-11-03T00:53:05;24.70;;;13.20;;
67757;SDS011;54562;47.620;18.786;2022-11-03T00:56:14;22.60;;;13.50;;
67757;SDS011;54562;47.620;18.786;2022-11-03T00:59:47;23.50;;;13.90;;
67757;SDS011;54562;47.620;18.786;2022-11-03T01:03:12;23.10;;;14.00;;
67757;SDS011;54562;47.620;18.786;2022-11-03T01:06:20;25.20;;;14.30;;
67757;SDS011;54562;47.620;18.786;2022-11-03T01:09:46;23.20;;;13.60;;
67757;SDS011;54562;47.620;18.786;2022-11-03T01:12:54;22.50;;;13.20;;
67757;SDS011;54562;47.620;18.786;2022-11-03T01:16:01;22.80;;;13.80;;
67757;SDS011;54562;47.620;18.786;2022-11-03T01:19:10;22.10;;;12.60;;
67757;SDS011;54562;47.620;18.786;2022-11-03T01:22:18;22.60;;;13.90;;
67757;SDS011;54562;47.620;18.786;2022-11-03T01:25:27;25.00;;;14.50;;
67757;SDS011;54562;47.620;18.786;2022-11-03T01:28:36;24.00;;;14.20;;
67757;SDS011;54562;47.620;18.786;2022-11-03T01:31:47;23.70;;;13.80;;
67757;SDS011;54562;47.620;18.786;2022-11-03T01:34:55;24.70;;;14.70;;
67757;SDS011;54562;47.620;18.786;2022-11-03T01:38:03;25.20;;;13.80;;
67757;SDS011;54562;47.620;18.786;2022-11-03T01:41:14;21.50;;;13.50;;
67757;SDS011;54562;47.620;18.786;2022-11-03T01:44:33;24.10;;;14.80;;
67757;SDS011;54562;47.620;18.786;2022-11-03T01:47:43;25.90;;;15.00;;
67757;SDS011;54562;47.620;18.786;2022-11-03T01:50:52;25.90;;;14.50;;
67757;SDS011;54562;47.620;18.786;2022-11-03T01:54:06;23.70;;;14.30;;
67757;SDS011;54562;47.620;18.786;2022-11-03T01:57:20;25.70;;;15.20;;
67757;SDS011;54562;47.620;18.786;2022-11-03T02:00:34;24.90;;;15.10;;
67757;SDS011;54562;47.620;18.786;2022-11-03T02:06:48;27.30;;;15.80;;
67757;SDS011;54562;47.620;18.786;2022-11-03T02:10:05;27.00;;;15.30;;
67757;SDS011;54562;47.620;18.786;2022-11-03T02:13:19;26.10;;;14.90;;
67757;SDS011;54562;47.620;18.786;2022-11-03T02:16:31;25.80;;;14.70;;
67757;SDS011;54562;47.620;18.786;2022-11-03T02:19:43;24.20;;;15.30;;
67757;SDS011;54562;47.620;18.786;2022-11-03T02:26:27;24.70;;;14.70;;
67757;SDS011;54562;47.620;18.786;2022-11-03T02:29:35;25.30;;;15.40;;
67757;SDS011;54562;47.620;18.786;2022-11-03T02:32:54;26.50;;;14.90;;
67757;SDS011;54562;47.620;18.786;2022-11-03T02:36:12;24.80;;;13.80;;
67757;SDS011;54562;47.620;18.786;2022-11-03T02:39:27;22.00;;;13.70;;
67757;SDS011;54562;47.620;18.786;2022-11-03T02:42:41;27.00;;;14.20;;
67757;SDS011;54562;47.620;18.786;2022-11-03T02:45:53;25.50;;;13.70;;
67757;SDS011;54562;47.620;18.786;2022-11-03T02:49:02;20.10;;;12.00;;
67757;SDS011;54562;47.620;18.786;2022-11-03T02:52:39;19.10;;;11.20;;
67757;SDS011;54562;47.620;18.786;2022-11-03T02:55:54;23.40;;;11.40;;
67757;SDS011;54562;47.620;18.786;2022-11-03T02:59:10;21.40;;;11.40;;
67757;SDS011;54562;47.620;18.786;2022-11-03T03:02:25;21.40;;;10.60;;
67757;SDS011;54562;47.620;18.786;2022-11-03T03:05:41;21.30;;;11.40;;
67757;SDS011;54562;47.620;18.786;2022-11-03T03:08:55;19.20;;;11.50;;
67757;SDS011;54562;47.620;18.786;2022-11-03T03:12:09;22.70;;;12.20;;
67757;SDS011;54562;47.620;18.786;2022-11-03T03:15:21;19.70;;;11.20;;
67757;SDS011;54562;47.620;18.786;2022-11-03T03:18:43;20.20;;;12.00;;
67757;SDS011;54562;47.620;18.786;2022-11-03T03:21:58;21.80;;;12.40;;
67757;SDS011;54562;47.620;18.786;2022-11-03T03:25:17;21.90;;;12.60;;
67757;SDS011;54562;47.620;18.786;2022-11-03T03:28:35;22.20;;;12.40;;
67757;SDS011;54562;47.620;18.786;2022-11-03T03:31:47;21.60;;;12.80;;
67757;SDS011;54562;47.620;18.786;2022-11-03T03:35:00;24.90;;;12.70;;
67757;SDS011;54562;47.620;18.786;2022-11-03T03:38:14;42.90;;;11.80;;
67757;SDS011;54562;47.620;18.786;2022-11-03T03:41:26;25.80;;;12.60;;
67757;SDS011;54562;47.620;18.786;2022-11-03T03:44:38;25.90;;;13.20;;
67757;SDS011;54562;47.620;18.786;2022-11-03T03:47:49;28.70;;;12.40;;
67757;SDS011;54562;47.620;18.786;2022-11-03T03:51:02;62.60;;;12.70;;
67757;SDS011;54562;47.620;18.786;2022-11-03T03:54:12;109.70;;;13.40;;
67757;SDS011;54562;47.620;18.786;2022-11-03T03:57:22;93.20;;;12.00;;
67757;SDS011;54562;47.620;18.786;2022-11-03T04:00:32;122.00;;;13.30;;
67757;SDS011;54562;47.620;18.786;2022-11-03T04:03:43;104.10;;;12.30;;
67757;SDS011;54562;47.620;18.786;2022-11-03T04:06:51;49.60;;;12.50;;
67757;SDS011;54562;47.620;18.786;2022-11-03T04:10:13;89.70;;;12.40;;
67757;SDS011;54562;47.620;18.786;2022-11-03T04:13:21;29.80;;;12.90;;
67757;SDS011;54562;47.620;18.786;2022-11-03T04:16:47;23.00;;;12.20;;
67757;SDS011;54562;47.620;18.786;2022-11-03T04:20:13;68.40;;;12.20;;
67757;SDS011;54562;47.620;18.786;2022-11-03T04:23:40;87.80;;;12.80;;
67757;SDS011;54562;47.620;18.786;2022-11-03T04:26:48;65.90;;;12.30;;
67757;SDS011;54562;47.620;18.786;2022-11-03T04:30:00;56.70;;;12.40;;
67757;SDS011;54562;47.620;18.786;2022-11-03T04:33:14;28.90;;;12.40;;
67757;SDS011;54562;47.620;18.786;2022-11-03T04:36:24;40.60;;;12.90;;
67757;SDS011;54562;47.620;18.786;2022-11-03T04:39:33;20.80;;;13.10;;
67757;SDS011;54562;47.620;18.786;2022-11-03T04:42:41;23.10;;;12.30;;
67757;SDS011;54562;47.620;18.786;2022-11-03T04:45:50;20.60;;;12.00;;
67757;SDS011;54562;47.620;18.786;2022-11-03T04:48:59;22.10;;;11.60;;
67757;SDS011;54562;47.620;18.786;2022-11-03T04:52:15;22.30;;;12.60;;
67757;SDS011;54562;47.620;18.786;2022-11-03T04:55:25;22.50;;;12.60;;
67757;SDS011;54562;47.620;18.786;2022-11-03T04:58:35;18.70;;;11.40;;
67757;SDS011;54562;47.620;18.786;2022-11-03T05:04:51;22.00;;;12.10;;
67757;SDS011;54562;47.620;18.786;2022-11-03T05:07:59;23.90;;;13.30;;
67757;SDS011;54562;47.620;18.786;2022-11-03T05:11:15;23.10;;;12.90;;
67757;SDS011;54562;47.620;18.786;2022-11-03T05:14:31;18.80;;;11.40;;
67757;SDS011;54562;47.620;18.786;2022-11-03T05:20:50;12.60;;;6.60;;
67757;SDS011;54562;47.620;18.786;2022-11-03T05:24:08;12.50;;;6.20;;
67757;SDS011;54562;47.620;18.786;2022-11-03T05:27:24;10.10;;;5.20;;
67757;SDS011;54562;47.620;18.786;2022-11-03T05:30:33;9.30;;;5.40;;
67757;SDS011;54562;47.620;18.786;2022-11-03T05:33:41;10.10;;;5.20;;
67757;SDS011;54562;47.620;18.786;2022-11-03T05:36:51;9.50;;;5.20;;
67757;SDS011;54562;47.620;18.786;2022-11-03T05:40:01;11.50;;;5.70;;
67757;SDS011;54562;47.620;18.786;2022-11-03T05:43:20;12.20;;;7.10;;
67757;SDS011;54562;47.620;18.786;2022-11-03T05:46:30;13.20;;;7.10;;
67757;SDS011;54562;47.620;18.786;2022-11-03T05:49:40;9.60;;;5.70;;
67757;SDS011;54562;47.620;18.786;2022-11-03T05:52:50;11.50;;;6.00;;
67757;SDS011;54562;47.620;18.786;2022-11-03T05:56:01;10.50;;;6.40;;
67757;SDS011;54562;47.620;18.786;2022-11-03T05:59:13;10.90;;;6.10;;
67757;SDS011;54562;47.620;18.786;2022-11-03T06:02:35;10.80;;;5.00;;
67757;SDS011;54562;47.620;18.786;2022-11-03T06:05:44;7.70;;;4.00;;
67757;SDS011;54562;47.620;18.786;2022-11-03T06:08:54;8.50;;;4.30;;
67757;SDS011;54562;47.620;18.786;2022-11-03T06:12:06;7.30;;;3.60;;
67757;SDS011;54562;47.620;18.786;2022-11-03T06:15:29;7.40;;;3.40;;
67757;SDS011;54562;47.620;18.786;2022-11-03T06:21:46;6.40;;;2.90;;
67757;SDS011;54562;47.620;18.786;2022-11-03T06:24:59;6.30;;;2.90;;
67757;SDS011;54562;47.620;18.786;2022-11-03T06:28:21;7.80;;;2.90;;
67757;SDS011;54562;47.620;18.786;2022-11-03T06:31:35;6.20;;;2.50;;
67757;SDS011;54562;47.620;18.786;2022-11-03T06:34:46;5.70;;;2.80;;
67757;SDS011;54562;47.620;18.786;2022-11-03T06:37:56;6.10;;;2.50;;
67757;SDS011;54562;47.620;18.786;2022-11-03T06:41:06;7.90;;;2.70;;
67757;SDS011;54562;47.620;18.786;2022-11-03T06:44:25;6.40;;;2.80;;
67757;SDS011;54562;47.620;18.786;2022-11-03T06:47:37;6.30;;;2.60;;
67757;SDS011;54562;47.620;18.786;2022-11-03T06:50:47;6.60;;;2.90;;
67757;SDS011;54562;47.620;18.786;2022-11-03T06:53:56;8.20;;;3.10;;
67757;SDS011;54562;47.620;18.786;2022-11-03T06:57:10;8.80;;;3.90;;
67757;SDS011;54562;47.620;18.786;2022-11-03T07:00:23;7.10;;;2.80;;
67757;SDS011;54562;47.620;18.786;2022-11-03T07:03:43;9.30;;;3.30;;
67757;SDS011;54562;47.620;18.786;2022-11-03T07:06:58;6.70;;;3.20;;
67757;SDS011;54562;47.620;18.786;2022-11-03T07:10:09;7.40;;;3.00;;
67757;SDS011;54562;47.620;18.786;2022-11-03T07:13:23;12.10;;;3.70;;
67757;SDS011;54562;47.620;18.786;2022-11-03T07:16:33;9.70;;;3.40;;
67757;SDS011;54562;47.620;18.786;2022-11-03T07:19:46;10.60;;;3.00;;
67757;SDS011;54562;47.620;18.786;2022-11-03T07:22:54;7.50;;;2.90;;
67757;SDS011;54562;47.620;18.786;2022-11-03T07:26:09;7.90;;;3.10;;
67757;SDS011;54562;47.620;18.786;2022-11-03T07:29:20;8.80;;;3.50;;
67757;SDS011;54562;47.620;18.786;2022-11-03T07:32:33;8.00;;;2.90;;
67757;SDS011;54562;47.620;18.786;2022-11-03T07:35:44;7.60;;;2.90;;
67757;SDS011;54562;47.620;18.786;2022-11-03T07:42:24;6.90;;;3.10;;
67757;SDS011;54562;47.620;18.786;2022-11-03T07:45:38;8.80;;;3.30;;
67757;SDS011;54562;47.620;18.786;2022-11-03T07:48:48;11.00;;;4.00;;
67757;SDS011;54562;47.620;18.786;2022-11-03T07:51:59;8.70;;;4.50;;
67757;SDS011;54562;47.620;18.786;2022-11-03T07:55:16;10.50;;;5.10;;
67757;SDS011;54562;47.620;18.786;2022-11-03T07:58:33;14.20;;;6.90;;
67757;SDS011;54562;47.620;18.786;2022-11-03T08:01:46;14.10;;;6.30;;
67757;SDS011;54562;47.620;18.786;2022-11-03T08:04:56;16.20;;;7.30;;
67757;SDS011;54562;47.620;18.786;2022-11-03T08:08:04;18.50;;;9.10;;
67757;SDS011;54562;47.620;18.786;2022-11-03T08:11:12;15.70;;;8.10;;
67757;SDS011;54562;47.620;18.786;2022-11-03T08:14:20;21.90;;;9.00;;
67757;SDS011;54562;47.620;18.786;2022-11-03T08:17:28;17.40;;;8.50;;
67757;SDS011;54562;47.620;18.786;2022-11-03T08:20:38;20.30;;;10.00;;
67757;SDS011;54562;47.620;18.786;2022-11-03T08:26:52;23.10;;;10.10;;
67757;SDS011;54562;47.620;18.786;2022-11-03T08:30:00;22.10;;;9.60;;
67757;SDS011;54562;47.620;18.786;2022-11-03T08:33:08;23.70;;;11.00;;
67757;SDS011;54562;47.620;18.786;2022-11-03T08:36:16;13.20;;;6.00;;
67757;SDS011;54562;47.620;18.786;2022-11-03T08:39:25;27.30;;;11.50;;
67757;SDS011;54562;47.620;18.786;2022-11-03T08:42:35;29.60;;;12.40;;
67757;SDS011;54562;47.620;18.786;2022-11-03T08:45:44;24.80;;;11.10;;
67757;SDS011;54562;47.620;18.786;2022-11-03T08:48:57;25.30;;;11.50;;
67757;SDS011;54562;47.620;18.786;2022-11-03T08:52:05;24.80;;;9.90;;
67757;SDS011;54562;47.620;18.786;2022-11-03T08:55:14;25.30;;;9.90;;
67757;SDS011;54562;47.620;18.786;2022-11-03T08:58:26;32.90;;;13.70;;
67757;SDS011;54562;47.620;18.786;2022-11-03T09:01:46;27.90;;;11.90;;
67757;SDS011;54562;47.620;18.786;2022-11-03T09:04:54;27.30;;;11.80;;
67757;SDS011;54562;47.620;18.786;2022-11-03T09:08:02;28.00;;;11.80;;
67757;SDS011;54562;47.620;18.786;2022-11-03T09:11:31;25.20;;;11.50;;
67757;SDS011;54562;47.620;18.786;2022-11-03T09:14:40;26.00;;;12.10;;
67757;SDS011;54562;47.620;18.786;2022-11-03T09:17:48;26.30;;;10.90;;
67757;SDS011;54562;47.620;18.786;2022-11-03T09:20:57;29.00;;;12.60;;
67757;SDS011;54562;47.620;18.786;2022-11-03T09:24:08;24.50;;;11.00;;
67757;SDS011;54562;47.620;18.786;2022-11-03T09:27:16;30.50;;;13.30;;
67757;SDS011;54562;47.620;18.786;2022-11-03T09:30:23;31.00;;;13.00;;
67757;SDS011;54562;47.620;18.786;2022-11-03T09:33:33;29.20;;;13.10;;
67757;SDS011;54562;47.620;18.786;2022-11-03T09:36:42;28.20;;;13.70;;
67757;SDS011;54562;47.620;18.786;2022-11-03T09:39:56;28.50;;;13.70;;
67757;SDS011;54562;47.620;18.786;2022-11-03T09:43:04;31.40;;;14.30;;
67757;SDS011;54562;47.620;18.786;2022-11-03T09:46:14;30.90;;;14.20;;
67757;SDS011;54562;47.620;18.786;2022-11-03T09:49:22;24.70;;;11.00;;
67757;SDS011;54562;47.620;18.786;2022-11-03T09:52:31;22.40;;;9.90;;
67757;SDS011;54562;47.620;18.786;2022-11-03T09:55:41;24.80;;;11.80;;
67757;SDS011;54562;47.620;18.786;2022-11-03T09:58:50;29.70;;;13.50;;
67757;SDS011;54562;47.620;18.786;2022-11-03T10:01:58;29.40;;;13.70;;
67757;SDS011;54562;47.620;18.786;2022-11-03T10:05:11;30.60;;;13.90;;
67757;SDS011;54562;47.620;18.786;2022-11-03T10:08:23;27.50;;;13.90;;
67757;SDS011;54562;47.620;18.786;2022-11-03T10:11:34;25.10;;;12.30;;
67757;SDS011;54562;47.620;18.786;2022-11-03T10:14:43;24.50;;;10.10;;
67757;SDS011;54562;47.620;18.786;2022-11-03T10:17:53;25.80;;;12.60;;
67757;SDS011;54562;47.620;18.786;2022-11-03T10:21:04;34.30;;;16.40;;
67757;SDS011;54562;47.620;18.786;2022-11-03T10:24:19;30.60;;;13.70;;
67757;SDS011;54562;47.620;18.786;2022-11-03T10:27:27;28.70;;;14.40;;
67757;SDS011;54562;47.620;18.786;2022-11-03T10:30:48;31.40;;;14.80;;
67757;SDS011;54562;47.620;18.786;2022-11-03T10:34:26;19.40;;;7.60;;
67757;SDS011;54562;47.620;18.786;2022-11-03T10:37:40;15.20;;;6.80;;
67757;SDS011;54562;47.620;18.786;2022-11-03T10:40:48;30.60;;;12.30;;
67757;SDS011;54562;47.620;18.786;2022-11-03T10:44:17;27.00;;;13.70;;
67757;SDS011;54562;47.620;18.786;2022-11-03T10:47:33;31.50;;;15.40;;
67757;SDS011;54562;47.620;18.786;2022-11-03T10:50:42;26.10;;;12.00;;
67757;SDS011;54562;47.620;18.786;2022-11-03T10:53:50;24.60;;;11.40;;
67757;SDS011;54562;47.620;18.786;2022-11-03T10:56:58;20.90;;;10.40;;
67757;SDS011;54562;47.620;18.786;2022-11-03T11:00:11;22.00;;;9.40;;
67757;SDS011;54562;47.620;18.786;2022-11-03T11:03:21;17.40;;;8.40;;
67757;SDS011;54562;47.620;18.786;2022-11-03T11:06:30;21.80;;;10.70;;
67757;SDS011;54562;47.620;18.786;2022-11-03T11:09:41;32.70;;;14.50;;
67757;SDS011;54562;47.620;18.786;2022-11-03T11:13:23;28.90;;;12.90;;
67757;SDS011;54562;47.620;18.786;2022-11-03T11:16:51;25.90;;;12.40;;
67757;SDS011;54562;47.620;18.786;2022-11-03T11:20:41;32.50;;;15.00;;
67757;SDS011;54562;47.620;18.786;2022-11-03T11:23:50;28.30;;;13.60;;
67757;SDS011;54562;47.620;18.786;2022-11-03T11:31:32;27.80;;;14.50;;
67757;SDS011;54562;47.620;18.786;2022-11-03T11:34:50;28.40;;;13.90;;
67757;SDS011;54562;47.620;18.786;2022-11-03T11:42:11;29.10;;;14.20;;
67757;SDS011;54562;47.620;18.786;2022-11-03T11:49:29;30.20;;;14.40;;
67757;SDS011;54562;47.620;18.786;2022-11-03T11:52:45;29.10;;;12.60;;
67757;SDS011;54562;47.620;18.786;2022-11-03T11:55:57;32.30;;;14.60;;
67757;SDS011;54562;47.620;18.786;2022-11-03T11:59:16;29.00;;;14.70;;
67757;SDS011;54562;47.620;18.786;2022-11-03T12:02:40;24.40;;;10.40;;
67757;SDS011;54562;47.620;18.786;2022-11-03T12:06:01;27.00;;;12.30;;
67757;SDS011;54562;47.620;18.786;2022-11-03T12:09:18;29.30;;;14.70;;
67757;SDS011;54562;47.620;18.786;2022-11-03T12:12:35;22.20;;;10.60;;
67757;SDS011;54562;47.620;18.786;2022-11-03T12:15:51;29.90;;;12.90;;
67757;SDS011;54562;47.620;18.786;2022-11-03T12:19:40;30.00;;;14.60;;
67757;SDS011;54562;47.620;18.786;2022-11-03T12:22:49;27.90;;;12.70;;
67757;SDS011;54562;47.620;18.786;2022-11-03T12:25:57;33.00;;;14.60;;
67757;SDS011;54562;47.620;18.786;2022-11-03T12:29:07;34.00;;;16.10;;
67757;SDS011;54562;47.620;18.786;2022-11-03T12:32:15;33.90;;;15.20;;
67757;SDS011;54562;47.620;18.786;2022-11-03T12:35:38;30.70;;;13.90;;
67757;SDS011;54562;47.620;18.786;2022-11-03T12:38:45;31.80;;;14.80;;
67757;SDS011;54562;47.620;18.786;2022-11-03T12:41:54;36.00;;;16.70;;
67757;SDS011;54562;47.620;18.786;2022-11-03T12:45:03;34.20;;;15.60;;
67757;SDS011;54562;47.620;18.786;2022-11-03T12:48:12;33.70;;;14.80;;
67757;SDS011;54562;47.620;18.786;2022-11-03T12:51:20;35.10;;;15.90;;
67757;SDS011;54562;47.620;18.786;2022-11-03T12:54:29;34.30;;;15.30;;
67757;SDS011;54562;47.620;18.786;2022-11-03T12:57:38;33.30;;;16.00;;
67757;SDS011;54562;47.620;18.786;2022-11-03T13:00:45;35.10;;;16.30;;
67757;SDS011;54562;47.620;18.786;2022-11-03T13:03:59;35.60;;;15.30;;
67757;SDS011;54562;47.620;18.786;2022-11-03T13:10:16;27.90;;;11.00;;
67757;SDS011;54562;47.620;18.786;2022-11-03T13:13:25;34.70;;;16.30;;
67757;SDS011;54562;47.620;18.786;2022-11-03T13:16:33;38.30;;;17.00;;
67757;SDS011;54562;47.620;18.786;2022-11-03T13:19:41;34.50;;;15.50;;
67757;SDS011;54562;47.620;18.786;2022-11-03T13:22:49;23.40;;;10.00;;
67757;SDS011;54562;47.620;18.786;2022-11-03T13:25:57;38.40;;;16.60;;
67757;SDS011;54562;47.620;18.786;2022-11-03T13:29:05;34.20;;;14.80;;
67757;SDS011;54562;47.620;18.786;2022-11-03T13:32:13;32.00;;;13.90;;
67757;SDS011;54562;47.620;18.786;2022-11-03T13:35:21;35.50;;;13.60;;
67757;SDS011;54562;47.620;18.786;2022-11-03T13:38:28;33.90;;;14.40;;
67757;SDS011;54562;47.620;18.786;2022-11-03T13:41:36;24.10;;;11.00;;
67757;SDS011;54562;47.620;18.786;2022-11-03T13:44:44;40.70;;;17.90;;
67757;SDS011;54562;47.620;18.786;2022-11-03T13:47:52;39.40;;;17.60;;
67757;SDS011;54562;47.620;18.786;2022-11-03T13:51:21;41.70;;;18.40;;
67757;SDS011;54562;47.620;18.786;2022-11-03T13:54:29;37.80;;;15.60;;
67757;SDS011;54562;47.620;18.786;2022-11-03T13:57:57;35.10;;;14.00;;
67757;SDS011;54562;47.620;18.786;2022-11-03T14:01:25;26.40;;;9.00;;
67757;SDS011;54562;47.620;18.786;2022-11-03T14:04:33;39.80;;;16.50;;
67757;SDS011;54562;47.620;18.786;2022-11-03T14:10:49;40.50;;;15.90;;
67757;SDS011;54562;47.620;18.786;2022-11-03T14:13:57;33.20;;;13.80;;
67757;SDS011;54562;47.620;18.786;2022-11-03T14:17:08;36.90;;;14.30;;
67757;SDS011;54562;47.620;18.786;2022-11-03T14:20:16;35.60;;;13.30;;
67757;SDS011;54562;47.620;18.786;2022-11-03T14:23:24;39.40;;;16.60;;
67757;SDS011;54562;47.620;18.786;2022-11-03T14:26:32;43.50;;;16.80;;
67757;SDS011;54562;47.620;18.786;2022-11-03T14:29:49;42.30;;;16.90;;
67757;SDS011;54562;47.620;18.786;2022-11-03T14:32:57;43.30;;;16.80;;
67757;SDS011;54562;47.620;18.786;2022-11-03T14:36:07;23.60;;;9.40;;
67757;SDS011;54562;47.620;18.786;2022-11-03T14:39:15;23.90;;;9.00;;
67757;SDS011;54562;47.620;18.786;2022-11-03T14:42:23;38.00;;;16.20;;
67757;SDS011;54562;47.620;18.786;2022-11-03T14:45:31;36.60;;;15.30;;
67757;SDS011;54562;47.620;18.786;2022-11-03T14:48:45;23.30;;;10.40;;
67757;SDS011;54562;47.620;18.786;2022-11-03T14:51:53;28.70;;;11.80;;
67757;SDS011;54562;47.620;18.786;2022-11-03T14:55:01;23.90;;;9.60;;
67757;SDS011;54562;47.620;18.786;2022-11-03T14:58:11;40.30;;;17.10;;
67757;SDS011;54562;47.620;18.786;2022-11-03T15:01:19;40.60;;;16.40;;
67757;SDS011;54562;47.620;18.786;2022-11-03T15:04:28;38.60;;;17.40;;
67757;SDS011;54562;47.620;18.786;2022-11-03T15:07:35;37.30;;;16.10;;
67757;SDS011;54562;47.620;18.786;2022-11-03T15:10:44;24.60;;;11.50;;
67757;SDS011;54562;47.620;18.786;2022-11-03T15:13:51;26.10;;;11.20;;
67757;SDS011;54562;47.620;18.786;2022-11-03T15:17:00;31.80;;;15.60;;
67757;SDS011;54562;47.620;18.786;2022-11-03T15:20:10;25.50;;;11.90;;
67757;SDS011;54562;47.620;18.786;2022-11-03T15:23:18;34.30;;;16.60;;
67757;SDS011;54562;47.620;18.786;2022-11-03T15:26:46;20.10;;;9.30;;
67757;SDS011;54562;47.620;18.786;2022-11-03T15:29:56;24.20;;;11.70;;
67757;SDS011;54562;47.620;18.786;2022-11-03T15:33:04;30.50;;;15.40;;
67757;SDS011;54562;47.620;18.786;2022-11-03T15:36:12;27.50;;;13.60;;
67757;SDS011;54562;47.620;18.786;2022-11-03T15:39:20;29.90;;;13.80;;
67757;SDS011;54562;47.620;18.786;2022-11-03T15:42:28;28.60;;;14.90;;
67757;SDS011;54562;47.620;18.786;2022-11-03T15:45:36;26.50;;;10.90;;
67757;SDS011;54562;47.620;18.786;2022-11-03T15:48:45;30.20;;;15.00;;
67757;SDS011;54562;47.620;18.786;2022-11-03T15:51:53;29.00;;;14.50;;
67757;SDS011;54562;47.620;18.786;2022-11-03T15:55:01;24.80;;;11.80;;
67757;SDS011;54562;47.620;18.786;2022-11-03T15:58:09;25.30;;;12.60;;
67757;SDS011;54562;47.620;18.786;2022-11-03T16:01:17;27.70;;;11.20;;
67757;SDS011;54562;47.620;18.786;2022-11-03T16:04:26;18.00;;;8.30;;
67757;SDS011;54562;47.620;18.786;2022-11-03T16:07:34;29.50;;;13.70;;
67757;SDS011;54562;47.620;18.786;2022-11-03T16:10:42;29.10;;;13.50;;
67757;SDS011;54562;47.620;18.786;2022-11-03T16:14:00;22.90;;;10.20;;
67757;SDS011;54562;47.620;18.786;2022-11-03T16:17:07;25.10;;;10.40;;
67757;SDS011;54562;47.620;18.786;2022-11-03T16:20:16;37.90;;;18.00;;
67757;SDS011;54562;47.620;18.786;2022-11-03T16:23:24;25.40;;;13.20;;
67757;SDS011;54562;47.620;18.786;2022-11-03T16:26:33;33.20;;;15.80;;
67757;SDS011;54562;47.620;18.786;2022-11-03T16:29:40;21.30;;;9.90;;
67757;SDS011;54562;47.620;18.786;2022-11-03T16:32:49;27.70;;;13.00;;
67757;SDS011;54562;47.620;18.786;2022-11-03T16:35:57;30.30;;;15.60;;
67757;SDS011;54562;47.620;18.786;2022-11-03T16:39:05;27.20;;;14.80;;
67757;SDS011;54562;47.620;18.786;2022-11-03T16:42:14;17.90;;;9.40;;
67757;SDS011;54562;47.620;18.786;2022-11-03T16:45:23;23.50;;;11.70;;
67757;SDS011;54562;47.620;18.786;2022-11-03T16:48:40;15.80;;;7.50;;
67757;SDS011;54562;47.620;18.786;2022-11-03T16:51:48;18.50;;;9.00;;
67757;SDS011;54562;47.620;18.786;2022-11-03T16:54:58;20.90;;;9.80;;
67757;SDS011;54562;47.620;18.786;2022-11-03T16:58:06;20.00;;;11.20;;
67757;SDS011;54562;47.620;18.786;2022-11-03T17:01:14;13.90;;;6.70;;
67757;SDS011;54562;47.620;18.786;2022-11-03T17:04:22;25.90;;;13.90;;
67757;SDS011;54562;47.620;18.786;2022-11-03T17:07:30;25.10;;;13.50;;
67757;SDS011;54562;47.620;18.786;2022-11-03T17:10:38;19.70;;;10.80;;
67757;SDS011;54562;47.620;18.786;2022-11-03T17:13:46;14.30;;;7.10;;
67757;SDS011;54562;47.620;18.786;2022-11-03T17:16:54;25.70;;;13.60;;
67757;SDS011;54562;47.620;18.786;2022-11-03T17:20:03;23.10;;;12.50;;
67757;SDS011;54562;47.620;18.786;2022-11-03T17:23:12;28.10;;;13.70;;
67757;SDS011;54562;47.620;18.786;2022-11-03T17:26:22;22.80;;;12.30;;
67757;SDS011;54562;47.620;18.786;2022-11-03T17:29:38;21.90;;;11.60;;
67757;SDS011;54562;47.620;18.786;2022-11-03T17:32:50;25.00;;;12.50;;
67757;SDS011;54562;47.620;18.786;2022-11-03T17:36:01;26.50;;;13.20;;
67757;SDS011;54562;47.620;18.786;2022-11-03T17:39:13;26.30;;;13.50;;
67757;SDS011;54562;47.620;18.786;2022-11-03T17:42:23;25.80;;;11.60;;
67757;SDS011;54562;47.620;18.786;2022-11-03T17:45:31;24.10;;;11.40;;
67757;SDS011;54562;47.620;18.786;2022-11-03T17:48:39;24.50;;;13.10;;
67757;SDS011;54562;47.620;18.786;2022-11-03T17:51:48;22.50;;;10.60;;
67757;SDS011;54562;47.620;18.786;2022-11-03T17:54:57;26.70;;;13.30;;
67757;SDS011;54562;47.620;18.786;2022-11-03T17:58:10;24.10;;;11.80;;
67757;SDS011;54562;47.620;18.786;2022-11-03T18:01:21;32.60;;;15.40;;
67757;SDS011;54562;47.620;18.786;2022-11-03T18:04:31;30.20;;;15.50;;
67757;SDS011;54562;47.620;18.786;2022-11-03T18:07:40;33.90;;;15.10;;
67757;SDS011;54562;47.620;18.786;2022-11-03T18:10:49;26.80;;;11.80;;
67757;SDS011;54562;47.620;18.786;2022-11-03T18:14:00;23.40;;;9.30;;
67757;SDS011;54562;47.620;18.786;2022-11-03T18:17:15;29.50;;;12.00;;
67757;SDS011;54562;47.620;18.786;2022-11-03T18:20:26;20.90;;;8.60;;
67757;SDS011;54562;47.620;18.786;2022-11-03T18:23:35;24.70;;;10.40;;
67757;SDS011;54562;47.620;18.786;2022-11-03T18:26:43;20.50;;;9.20;;
67757;SDS011;54562;47.620;18.786;2022-11-03T18:29:51;31.60;;;13.90;;
67757;SDS011;54562;47.620;18.786;2022-11-03T18:32:58;30.80;;;14.20;;
67757;SDS011;54562;47.620;18.786;2022-11-03T18:36:08;35.80;;;14.00;;
67757;SDS011;54562;47.620;18.786;2022-11-03T18:39:22;39.10;;;17.00;;
67757;SDS011;54562;47.620;18.786;2022-11-03T18:42:31;28.80;;;13.00;;
67757;SDS011;54562;47.620;18.786;2022-11-03T18:45:39;38.10;;;16.70;;
67757;SDS011;54562;47.620;18.786;2022-11-03T18:48:48;44.10;;;19.30;;
67757;SDS011;54562;47.620;18.786;2022-11-03T18:51:57;37.10;;;15.00;;
67757;SDS011;54562;47.620;18.786;2022-11-03T18:55:10;45.30;;;18.40;;
67757;SDS011;54562;47.620;18.786;2022-11-03T18:58:21;33.00;;;13.40;;
67757;SDS011;54562;47.620;18.786;2022-11-03T19:01:30;47.20;;;22.00;;
67757;SDS011;54562;47.620;18.786;2022-11-03T19:04:38;42.80;;;17.80;;
67757;SDS011;54562;47.620;18.786;2022-11-03T19:07:48;43.80;;;17.00;;
67757;SDS011;54562;47.620;18.786;2022-11-03T19:10:58;46.20;;;18.30;;
67757;SDS011;54562;47.620;18.786;2022-11-03T19:14:10;43.30;;;18.00;;